Time;durP1;ratioP1;P1;durP2;ratioP2;P2;SDS_P1;SDS_P2;PMS_P1;PMS_P2;Temp;Humidity;BMP_temperature;BMP_pressure;BME280_temperature;BME280_humidity;BME280_pressure;Samples;Min_cycle;Max_cycle;Signal;HPM_P1;HPM_P2
2021/01/24 00:01:09;;;;;;;28.47;17.73;;;;;;;2.33;84.24;94741.54;1759074;81;21265;-93
2021/01/24 00:03:36;;;;;;;24.98;16.67;;;;;;;2.31;84.40;94730.58;1758929;82;21155;-93
2021/01/24 00:06:03;;;;;;;32.50;18.30;;;;;;;2.34;84.51;94719.05;1758933;81;21289;-92
2021/01/24 00:08:30;;;;;;;24.77;14.60;;;;;;;2.38;84.54;94723.19;1758900;82;21143;-92
2021/01/24 00:10:57;;;;;;;23.98;14.63;;;;;;;2.43;84.51;94725.01;1758924;81;21273;-93
2021/01/24 00:13:24;;;;;;;29.37;16.40;;;;;;;2.32;84.26;94719.84;1759007;82;21653;-93
2021/01/24 00:15:51;;;;;;;30.05;17.77;;;;;;;2.25;84.39;94722.50;1758934;81;21116;-92
2021/01/24 00:18:18;;;;;;;27.82;17.37;;;;;;;2.21;84.60;94715.73;1758961;81;21657;-94
2021/01/24 00:20:45;;;;;;;31.37;17.10;;;;;;;2.22;84.73;94714.67;1758968;82;21281;-92
2021/01/24 00:23:12;;;;;;;29.57;16.62;;;;;;;2.23;84.79;94705.00;1759044;81;21163;-92
2021/01/24 00:25:39;;;;;;;24.67;15.00;;;;;;;2.26;84.90;94697.41;1758888;82;21140;-95
2021/01/24 00:28:06;;;;;;;27.13;15.28;;;;;;;2.34;84.92;94686.36;1758881;81;21286;-93
2021/01/24 00:30:33;;;;;;;24.40;14.93;;;;;;;2.43;84.90;94691.02;1759079;81;21289;-92
2021/01/24 00:33:00;;;;;;;28.35;17.27;;;;;;;2.48;84.81;94687.82;1759004;80;21310;-93
2021/01/24 00:35:27;;;;;;;26.15;16.90;;;;;;;2.43;84.67;94689.18;1758915;82;21262;-93
2021/01/24 00:37:54;;;;;;;26.20;15.93;;;;;;;2.42;84.72;94686.84;1758954;81;21527;-92
2021/01/24 00:40:21;;;;;;;26.42;15.93;;;;;;;2.40;84.71;94683.72;1758906;82;21116;-93
2021/01/24 00:42:48;;;;;;;25.55;16.12;;;;;;;2.34;84.70;94683.74;1758887;82;21270;-94
2021/01/24 00:45:15;;;;;;;24.15;15.55;;;;;;;2.28;84.67;94678.31;1759280;81;21155;-92
2021/01/24 00:47:42;;;;;;;26.48;15.78;;;;;;;2.29;84.85;94675.95;1759053;82;21293;-92
2021/01/24 00:50:10;;;;;;;23.07;14.78;;;;;;;2.29;84.69;94681.17;1758975;81;21293;-93
2021/01/24 00:52:37;;;;;;;23.95;14.80;;;;;;;2.27;84.67;94679.89;1758896;82;21112;-94
2021/01/24 00:55:05;;;;;;;23.45;15.53;;;;;;;2.30;84.69;94677.51;1758876;82;21301;-92
2021/01/24 00:57:32;;;;;;;25.90;14.93;;;;;;;2.36;84.67;94666.47;1759142;82;21156;-93
2021/01/24 00:59:59;;;;;;;21.10;13.50;;;;;;;2.40;84.65;94662.27;1758838;82;21120;-93
2021/01/24 01:02:26;;;;;;;22.80;14.33;;;;;;;2.43;84.55;94658.33;1758958;82;21522;-93
2021/01/24 01:04:53;;;;;;;25.23;15.08;;;;;;;2.36;84.48;94655.48;1758869;82;21641;-94
2021/01/24 01:07:19;;;;;;;21.87;13.98;;;;;;;2.31;84.59;94656.84;1758939;81;21514;-93
2021/01/24 01:09:46;;;;;;;21.42;13.83;;;;;;;2.37;84.75;94654.42;1758865;82;21266;-93
2021/01/24 01:12:13;;;;;;;22.02;13.30;;;;;;;2.29;84.48;94647.72;1758856;81;21281;-92
2021/01/24 01:14:40;;;;;;;25.12;14.18;;;;;;;2.27;84.51;94644.07;1758960;81;21277;-94
2021/01/24 01:17:07;;;;;;;21.05;13.93;;;;;;;2.27;84.42;94645.38;1758924;81;21526;-93
2021/01/24 01:19:34;;;;;;;21.93;13.88;;;;;;;2.22;84.43;94646.70;1758881;82;21697;-92
2021/01/24 01:22:01;;;;;;;18.75;13.83;;;;;;;2.17;84.52;94648.06;1758875;81;21673;-92
2021/01/24 01:24:28;;;;;;;23.47;14.50;;;;;;;2.16;84.68;94656.18;1758820;81;21645;-92
2021/01/24 01:26:55;;;;;;;18.20;12.18;;;;;;;2.13;84.72;94652.28;1758830;82;21147;-92
2021/01/24 01:29:22;;;;;;;21.40;12.90;;;;;;;2.20;84.83;94663.72;1758932;81;21634;-93
2021/01/24 01:31:49;;;;;;;22.98;13.53;;;;;;;2.28;84.86;94665.23;1758941;82;21471;-93
2021/01/24 01:34:16;;;;;;;21.33;13.68;;;;;;;2.37;84.88;94653.13;1758859;82;21143;-92
2021/01/24 01:36:43;;;;;;;22.32;12.98;;;;;;;2.39;84.69;94650.23;1759044;81;21142;-93
2021/01/24 01:39:10;;;;;;;22.60;13.60;;;;;;;2.38;84.67;94655.98;1759102;81;21156;-93
2021/01/24 01:41:38;;;;;;;20.40;12.82;;;;;;;2.43;84.77;94647.87;1758961;82;21159;-92
2021/01/24 01:44:05;;;;;;;18.80;11.88;;;;;;;2.53;84.86;94639.91;1758847;82;21285;-94
2021/01/24 01:46:33;;;;;;;19.05;12.05;;;;;;;2.57;84.81;94640.41;1759134;82;21274;-94
2021/01/24 01:49:00;;;;;;;19.10;11.45;;;;;;;2.58;84.70;94641.20;1759035;82;21127;-94
2021/01/24 01:51:27;;;;;;;21.23;11.22;;;;;;;2.54;84.59;94637.58;1758833;81;21483;-93
2021/01/24 01:53:55;;;;;;;17.48;10.45;;;;;;;2.56;84.67;94627.09;1758806;82;21154;-93
2021/01/24 01:56:22;;;;;;;19.35;11.35;;;;;;;2.61;84.68;94630.95;1758841;81;21148;-93
2021/01/24 01:58:49;;;;;;;19.57;11.43;;;;;;;2.67;84.61;94635.09;1758748;82;21177;-96
2021/01/24 02:01:28;;;;;;;29.92;16.00;;;;;;;2.67;84.53;94638.21;1758922;82;21515;-93
2021/01/24 02:04:12;;;;;;;30.15;19.00;;;;;;;2.70;84.47;94641.61;1757121;82;21282;-92
2021/01/24 02:06:51;;;;;;;28.07;17.52;;;;;;;2.61;84.34;94636.19;1757759;82;21143;-94
2021/01/24 02:09:37;;;;;;;28.30;17.60;;;;;;;2.63;84.39;94628.05;1734175;81;21145;-92
2021/01/24 02:12:19;;;;;;;29.20;18.12;;;;;;;2.67;84.44;94632.48;1758847;82;21167;-93
2021/01/24 02:15:06;;;;;;;27.62;17.32;;;;;;;2.71;84.40;94630.61;1758901;82;21481;-92
2021/01/24 02:17:37;;;;;;;26.55;16.00;;;;;;;2.70;84.30;94628.53;1758793;82;21504;-93
2021/01/24 02:20:22;;;;;;;23.55;14.75;;;;;;;2.70;84.29;94628.53;1758828;82;21175;-92
2021/01/24 02:22:52;;;;;;;21.45;14.23;;;;;;;2.60;84.19;94626.78;1757688;81;21124;-92
2021/01/24 02:25:51;;;;;;;20.70;12.63;;;;;;;2.41;84.21;94622.00;1742267;81;21097;-92
2021/01/24 02:28:56;;;;;;;19.55;12.65;;;;;;;2.38;84.57;94622.00;1742459;82;21185;-92
2021/01/24 02:31:27;;;;;;;20.50;12.45;;;;;;;2.49;84.76;94618.77;1742183;82;21490;-94
2021/01/24 02:33:56;;;;;;;21.82;12.15;;;;;;;2.58;84.81;94617.66;1742325;81;21786;-94
2021/01/24 02:36:26;;;;;;;21.42;13.38;;;;;;;2.63;84.78;94622.83;1742253;82;21147;-92
2021/01/24 02:38:56;;;;;;;20.77;12.70;;;;;;;2.61;84.59;94623.63;1742265;82;21158;-92
2021/01/24 02:41:26;;;;;;;24.02;13.78;;;;;;;2.62;84.61;94617.34;1742299;81;21144;-92
2021/01/24 02:43:53;;;;;;;19.97;12.43;;;;;;;2.62;84.55;94611.58;1742371;82;21162;-92
2021/01/24 02:46:20;;;;;;;20.60;11.93;;;;;;;2.69;84.60;94608.66;1742085;82;21513;-93
2021/01/24 02:48:52;;;;;;;20.35;11.30;;;;;;;2.74;84.54;94609.90;1742133;82;21152;-92
2021/01/24 02:51:20;;;;;;;22.73;13.30;;;;;;;2.66;84.25;94613.11;1742116;81;21123;-91
2021/01/24 02:53:50;;;;;;;23.55;13.18;;;;;;;2.46;84.21;94608.09;1742285;82;21108;-93
2021/01/24 02:56:18;;;;;;;20.30;13.00;;;;;;;2.33;84.40;94612.89;1742291;82;21146;-93
2021/01/24 02:58:45;;;;;;;21.93;11.78;;;;;;;2.30;84.66;94600.91;1725500;81;21170;-92
2021/01/24 03:01:12;;;;;;;20.75;11.75;;;;;;;2.28;84.80;94601.19;1761474;81;21153;-92
2021/01/24 03:03:39;;;;;;;22.50;11.20;;;;;;;2.28;84.98;94594.66;1761173;81;21161;-92
2021/01/24 03:06:09;;;;;;;18.48;10.50;;;;;;;2.34;85.13;94601.38;1761185;81;21109;-92
2021/01/24 03:08:37;;;;;;;21.37;11.27;;;;;;;2.43;85.27;94600.80;1761498;81;21191;-92
2021/01/24 03:11:08;;;;;;;17.17;11.10;;;;;;;2.53;85.28;94604.60;1761274;81;21551;-92
2021/01/24 03:13:47;;;;;;;16.77;10.38;;;;;;;2.61;85.26;94602.70;1761191;81;21140;-93
2021/01/24 03:16:16;;;;;;;18.90;10.60;;;;;;;2.68;85.19;94601.86;1761385;80;21842;-93
2021/01/24 03:18:46;;;;;;;18.30;9.93;;;;;;;2.69;85.09;94595.58;1761568;81;21151;-92
2021/01/24 03:21:16;;;;;;;18.37;9.93;;;;;;;2.76;85.08;94597.31;1733393;81;21500;-92
2021/01/24 03:23:43;;;;;;;16.73;10.38;;;;;;;2.75;84.95;94590.53;1769671;80;21161;-93
2021/01/24 03:26:12;;;;;;;14.70;9.85;;;;;;;2.76;84.88;94580.31;1763609;81;21125;-93
2021/01/24 03:28:40;;;;;;;17.87;10.32;;;;;;;2.80;84.89;94575.29;1763668;81;21162;-94
2021/01/24 03:31:09;;;;;;;18.67;10.90;;;;;;;2.86;84.90;94572.36;1763671;81;21138;-91
2021/01/24 03:33:39;;;;;;;21.23;12.58;;;;;;;2.90;84.86;94568.64;1763817;81;21158;-92
2021/01/24 03:36:07;;;;;;;;;;;;;;;2.91;84.69;94566.28;1766398;81;21127;-93
2021/01/24 03:38:34;;;;;;;21.62;12.45;;;;;;;2.84;84.57;94570.55;1763750;81;20149;-92
2021/01/24 03:41:01;;;;;;;17.65;11.10;;;;;;;2.70;84.49;94564.43;1763767;81;21127;-94
2021/01/24 03:43:28;;;;;;;22.77;12.30;;;;;;;2.62;84.53;94568.42;1763782;81;21099;-91
2021/01/24 03:45:55;;;;;;;18.60;12.33;;;;;;;2.61;84.61;94559.55;1764043;81;21179;-92
2021/01/24 03:48:22;;;;;;;22.17;11.70;;;;;;;2.63;84.64;94554.81;1763939;81;21180;-93
2021/01/24 03:50:49;;;;;;;21.77;12.20;;;;;;;2.63;84.55;94549.58;1764031;81;21116;-92
2021/01/24 03:53:17;;;;;;;22.02;12.53;;;;;;;2.61;84.45;94545.16;1763772;81;21277;-92
2021/01/24 03:55:43;;;;;;;20.65;12.63;;;;;;;2.65;84.45;94551.39;1763770;81;21099;-93
2021/01/24 03:58:10;;;;;;;22.95;12.55;;;;;;;2.65;84.33;94551.39;1763701;81;21147;-92
2021/01/24 04:00:37;;;;;;;21.20;13.45;;;;;;;2.56;84.22;94551.23;1763762;81;21145;-93
2021/01/24 04:03:04;;;;;;;23.25;14.23;;;;;;;2.43;84.22;94540.66;1763755;81;21175;-91
2021/01/24 04:05:32;;;;;;;24.75;15.45;;;;;;;2.43;84.44;94549.80;1763769;81;21130;-92
2021/01/24 04:07:59;;;;;;;24.45;14.73;;;;;;;2.49;84.70;94539.00;1763707;81;21146;-93
2021/01/24 04:10:26;;;;;;;22.13;12.82;;;;;;;2.52;84.67;94527.98;1763830;81;21130;-92
2021/01/24 04:12:53;;;;;;;21.82;12.35;;;;;;;2.58;84.73;94530.03;1763732;81;21122;-92
2021/01/24 04:15:20;;;;;;;20.70;12.55;;;;;;;2.61;84.65;94526.32;1763831;81;21150;-92
2021/01/24 04:17:47;;;;;;;18.02;11.28;;;;;;;2.65;84.57;94523.92;1763716;81;21169;-92
2021/01/24 04:20:15;;;;;;;16.90;10.65;;;;;;;2.67;84.49;94526.53;1763922;81;21154;-92
2021/01/24 04:22:42;;;;;;;17.65;11.15;;;;;;;2.71;84.44;94533.28;1763753;81;21122;-92
2021/01/24 04:25:12;;;;;;;17.95;12.28;;;;;;;2.60;84.17;94522.68;1770542;81;21146;-92
2021/01/24 04:27:39;;;;;;;15.25;9.53;;;;;;;2.51;84.08;94506.03;1741072;82;21175;-92
2021/01/24 04:30:07;;;;;;;17.82;9.68;;;;;;;2.51;84.24;94498.96;1740959;82;21154;-92
2021/01/24 04:32:35;;;;;;;16.50;9.20;;;;;;;2.54;84.33;94498.95;1772733;81;21134;-92
2021/01/24 04:35:04;;;;;;;14.70;8.60;;;;;;;2.53;84.18;94490.84;1740939;82;21513;-95
2021/01/24 04:37:31;;;;;;;15.28;8.70;;;;;;;2.46;84.13;94492.49;1772644;81;21114;-93
2021/01/24 04:39:58;;;;;;;13.90;8.50;;;;;;;2.51;84.20;94489.03;1740837;82;21161;-92
2021/01/24 04:42:27;;;;;;;16.80;8.73;;;;;;;2.52;84.24;94486.13;1740864;82;21157;-92
2021/01/24 04:44:56;;;;;;;12.43;8.28;;;;;;;2.54;84.13;94482.73;1718067;82;21174;-92
2021/01/24 04:47:25;;;;;;;13.00;8.28;;;;;;;2.54;84.00;94485.35;1772694;81;21189;-93
2021/01/24 04:49:52;;;;;;;19.57;10.48;;;;;;;2.57;84.04;94495.78;1740859;82;21142;-94
2021/01/24 04:52:19;;;;;;;19.50;12.03;;;;;;;2.54;83.88;94501.05;1749014;81;21138;-91
2021/01/24 04:54:48;;;;;;;19.65;11.75;;;;;;;2.35;83.72;94494.43;1740860;82;21524;-93
2021/01/24 04:57:17;;;;;;;18.23;10.53;;;;;;;2.25;83.83;94493.75;1772588;81;21118;-93
2021/01/24 04:59:44;;;;;;;14.93;9.83;;;;;;;2.27;84.03;94494.28;1735035;82;21176;-91
2021/01/24 05:02:13;;;;;;;14.45;8.75;;;;;;;2.30;84.19;94489.27;1773039;81;21137;-94
2021/01/24 05:04:40;;;;;;;12.82;7.37;;;;;;;2.37;84.20;94488.39;1772632;81;21489;-93
2021/01/24 05:07:07;;;;;;;12.40;7.37;;;;;;;2.42;84.17;94476.34;1740987;82;21169;-92
2021/01/24 05:09:34;;;;;;;12.80;7.72;;;;;;;2.41;83.97;94469.55;1772708;81;21541;-93
2021/01/24 05:12:01;;;;;;;14.55;8.28;;;;;;;2.41;83.88;94470.86;1740842;82;21481;-92
2021/01/24 05:14:29;;;;;;;11.60;7.45;;;;;;;2.43;83.88;94460.37;1741031;82;21118;-94
2021/01/24 05:16:56;;;;;;;12.15;7.67;;;;;;;2.46;83.86;94465.56;1740916;82;21517;-92
2021/01/24 05:19:23;;;;;;;15.28;8.45;;;;;;;2.47;83.76;94470.52;1740785;82;21477;-92
2021/01/24 05:21:53;;;;;;;23.27;13.68;;;;;;;2.43;83.54;94473.97;1740828;82;21165;-93
2021/01/24 05:24:21;;;;;;;20.00;11.20;;;;;;;2.11;83.27;94474.55;1769836;80;21150;-93
2021/01/24 05:26:51;;;;;;;14.40;9.63;;;;;;;1.90;83.58;94472.68;1763697;81;21104;-95
2021/01/24 05:29:25;;;;;;;14.05;8.58;;;;;;;1.84;83.94;94469.88;1763745;81;21531;-93
2021/01/24 05:31:55;;;;;;;13.65;8.08;;;;;;;1.84;84.10;94475.09;1764004;81;21146;-92
2021/01/24 05:34:26;;;;;;;13.75;7.78;;;;;;;1.85;84.28;94468.81;1763692;81;21095;-93
2021/01/24 05:36:55;;;;;;;14.70;8.55;;;;;;;1.89;84.32;94471.12;1763845;81;21134;-94
2021/01/24 05:39:24;;;;;;;14.78;9.40;;;;;;;1.89;84.34;94470.59;1763615;81;21139;-93
2021/01/24 05:41:55;;;;;;;16.90;9.50;;;;;;;1.91;84.37;94458.56;1763952;81;21131;-91
2021/01/24 05:44:25;;;;;;;17.10;10.00;;;;;;;1.93;84.41;94456.45;1763714;81;21092;-92
2021/01/24 05:47:03;;;;;;;18.00;10.10;;;;;;;1.93;84.39;94436.84;1763678;81;21120;-93
2021/01/24 05:49:33;;;;;;;17.57;10.15;;;;;;;1.84;84.29;94433.30;1763696;81;21091;-92
2021/01/24 05:52:08;;;;;;;13.68;8.50;;;;;;;1.76;84.35;94449.81;1736241;81;21143;-93
2021/01/24 05:54:45;;;;;;;17.15;11.18;;;;;;;1.76;84.53;94460.26;1763761;81;21518;-92
2021/01/24 05:57:16;;;;;;;22.30;13.53;;;;;;;1.56;84.73;94465.67;1763924;81;21131;-93
2021/01/24 05:59:57;;;;;;;15.15;9.73;;;;;;;1.32;85.06;94464.80;1763723;81;21513;-92
2021/01/24 06:02:27;;;;;;;15.83;8.95;;;;;;;1.25;85.28;94459.09;1763623;81;21087;-93
2021/01/24 06:04:56;;;;;;;16.62;9.98;;;;;;;1.26;85.53;94447.60;1763666;81;21158;-93
2021/01/24 06:07:24;;;;;;;14.10;9.35;;;;;;;1.32;85.63;94448.61;1763717;81;21150;-92
2021/01/24 06:09:52;;;;;;;17.05;11.00;;;;;;;1.41;85.69;94440.46;1763753;81;21135;-91
2021/01/24 06:12:24;;;;;;;19.77;12.58;;;;;;;1.42;85.40;94436.02;1763596;81;21518;-92
2021/01/24 06:14:52;;;;;;;18.20;11.33;;;;;;;1.37;85.33;94437.34;1763676;81;21127;-91
2021/01/24 06:17:38;;;;;;;18.75;11.48;;;;;;;1.35;85.39;94430.31;1763690;81;21462;-92
2021/01/24 06:20:09;;;;;;;22.60;12.47;;;;;;;1.34;85.47;94431.38;1763682;81;21107;-92
2021/01/24 06:22:44;;;;;;;;;;;;;;;1.35;85.50;94437.63;1766237;81;21131;-93
2021/01/24 06:25:25;;;;;;;17.62;11.95;;;;;;;1.35;85.44;94442.06;1763651;81;20156;-92
2021/01/24 06:28:00;;;;;;;18.17;11.53;;;;;;;1.32;85.46;94441.31;1763845;81;21119;-94
2021/01/24 06:30:30;;;;;;;18.37;11.12;;;;;;;1.34;85.53;94432.67;1763689;81;21138;-94
2021/01/24 06:33:20;;;;;;;16.70;10.08;;;;;;;1.39;85.54;94441.77;1763729;81;21252;-94
2021/01/24 06:35:54;;;;;;;18.65;11.18;;;;;;;1.41;85.44;94445.69;1763809;81;21498;-93
2021/01/24 06:38:41;;;;;;;15.28;9.33;;;;;;;1.43;85.38;94434.97;1763629;81;21139;-92
2021/01/24 06:41:14;;;;;;;15.58;8.48;;;;;;;1.48;85.34;94432.30;1763862;81;21120;-92
2021/01/24 06:43:48;;;;;;;14.28;7.75;;;;;;;1.54;85.28;94439.03;1763692;81;21615;-92
2021/01/24 06:46:33;;;;;;;13.30;7.08;;;;;;;1.59;85.21;94435.08;1763839;81;21118;-91
2021/01/24 06:49:00;;;;;;;13.83;7.83;;;;;;;1.62;85.09;94435.05;1763871;81;21186;-94
2021/01/24 06:51:38;;;;;;;13.45;8.00;;;;;;;1.60;85.09;94435.86;1763573;81;21517;-91
2021/01/24 06:54:10;;;;;;;14.63;8.78;;;;;;;1.66;85.18;94437.36;1763758;81;21130;-92
2021/01/24 06:56:45;;;;;;;16.55;9.15;;;;;;;1.61;84.93;94434.80;1759624;81;21147;-92
2021/01/24 06:59:14;;;;;;;13.93;9.18;;;;;;;1.49;84.90;94431.25;1763427;81;21121;-94
2021/01/24 07:01:43;;;;;;;13.13;8.28;;;;;;;1.46;85.07;94428.66;1763582;81;21268;-94
2021/01/24 07:04:31;;;;;;;18.05;9.28;;;;;;;1.52;85.32;94429.39;1763794;81;21146;-92
2021/01/24 07:07:16;;;;;;;12.45;7.60;;;;;;;1.52;85.35;94429.91;1763677;81;21138;-93
2021/01/24 07:09:44;;;;;;;17.05;8.90;;;;;;;1.40;85.33;94431.57;1763585;81;21307;-94
2021/01/24 07:12:12;;;;;;;15.08;9.70;;;;;;;1.31;85.42;94431.92;1763710;81;21146;-92
2021/01/24 07:14:45;;;;;;;51.18;26.05;;;;;;;1.34;85.60;94437.90;1763759;81;21522;-92
2021/01/24 07:17:17;;;;;;;29.45;14.85;;;;;;;1.38;85.58;94437.59;1763651;81;21158;-94
2021/01/24 07:19:54;;;;;;;33.00;16.93;;;;;;;1.32;85.58;94429.56;1763244;81;21483;-93
2021/01/24 07:22:26;;;;;;;18.60;9.58;;;;;;;1.31;85.73;94430.63;1763842;81;21115;-93
2021/01/24 07:24:54;;;;;;;16.27;9.98;;;;;;;1.35;86.17;94427.70;1763792;81;21143;-91
2021/01/24 07:27:28;;;;;;;16.65;10.28;;;;;;;1.44;86.56;94435.99;1763543;81;21176;-95
2021/01/24 07:29:57;;;;;;;20.85;12.75;;;;;;;1.56;86.68;94443.47;1763583;81;21127;-93
2021/01/24 07:32:26;;;;;;;17.87;11.45;;;;;;;1.66;86.64;94443.36;1763580;81;21273;-93
2021/01/24 07:34:55;;;;;;;22.80;13.78;;;;;;;1.84;86.47;94441.14;1763642;81;21470;-94
2021/01/24 07:37:24;;;;;;;19.02;12.10;;;;;;;2.40;86.29;94436.63;1763575;81;21167;-93
2021/01/24 07:39:53;;;;;;;21.73;13.80;;;;;;;2.59;85.58;94436.89;1763635;81;21134;-94
2021/01/24 07:42:21;;;;;;;19.07;13.22;;;;;;;2.57;85.06;94444.25;1763846;81;21145;-93
2021/01/24 07:44:48;;;;;;;19.23;13.13;;;;;;;2.61;84.87;94437.92;1763632;81;21522;-94
2021/01/24 07:47:16;;;;;;;21.12;14.15;;;;;;;2.58;84.70;94425.41;1763536;81;21178;-92
2021/01/24 07:49:43;;;;;;;22.17;14.47;;;;;;;2.58;84.78;94421.48;1763572;81;21154;-93
2021/01/24 07:52:11;;;;;;;17.15;11.55;;;;;;;2.63;84.86;94424.80;1764089;81;21181;-95
2021/01/24 07:54:39;;;;;;;18.90;11.97;;;;;;;2.80;85.04;94426.93;1763744;81;21138;-92
2021/01/24 07:57:08;;;;;;;19.05;12.00;;;;;;;2.93;84.73;94425.45;1763597;81;21499;-92
2021/01/24 07:59:36;;;;;;;17.77;11.45;;;;;;;2.97;84.37;94426.47;1763922;81;21138;-93
2021/01/24 08:02:05;;;;;;;18.27;13.40;;;;;;;2.94;84.09;94429.09;1763643;81;21131;-92
2021/01/24 08:04:37;;;;;;;19.80;13.18;;;;;;;2.74;83.88;94435.92;1763804;81;21131;-91
2021/01/24 08:07:09;;;;;;;24.00;14.25;;;;;;;2.51;84.16;94441.42;1763617;81;21150;-93
2021/01/24 08:09:37;;;;;;;24.05;16.23;;;;;;;2.38;84.49;94431.64;1763557;81;21130;-92
2021/01/24 08:12:12;;;;;;;23.85;16.00;;;;;;;2.32;84.69;94428.86;1763804;81;21107;-92
2021/01/24 08:14:41;;;;;;;23.95;15.45;;;;;;;2.31;84.89;94431.22;1763649;81;21095;-94
2021/01/24 08:17:12;;;;;;;23.98;15.98;;;;;;;2.39;85.15;94426.66;1763526;81;21229;-93
2021/01/24 08:19:42;;;;;;;25.85;15.90;;;;;;;2.54;85.24;94430.43;1735815;81;21500;-93
2021/01/24 08:22:09;;;;;;;27.48;16.45;;;;;;;2.68;85.30;94431.83;1763720;81;21490;-92
2021/01/24 08:24:37;;;;;;;26.52;16.57;;;;;;;2.75;85.18;94438.00;1763609;80;21283;-93
2021/01/24 08:27:05;;;;;;;25.40;16.57;;;;;;;2.72;85.08;94438.05;1763769;81;21485;-92
2021/01/24 08:29:35;;;;;;;23.22;14.58;;;;;;;2.75;85.18;94449.25;1763776;81;21506;-93
2021/01/24 08:32:05;;;;;;;22.58;15.90;;;;;;;2.84;85.27;94442.34;1736446;81;21130;-92
2021/01/24 08:34:34;;;;;;;23.95;15.95;;;;;;;2.95;85.35;94439.03;1763917;81;21466;-92
2021/01/24 08:37:05;;;;;;;27.05;17.32;;;;;;;3.07;85.40;94440.69;1763661;81;21103;-93
2021/01/24 08:39:33;;;;;;;27.10;15.38;;;;;;;3.20;85.32;94445.75;1763942;81;21143;-92
2021/01/24 08:42:05;;;;;;;25.20;16.23;;;;;;;3.28;85.25;94452.97;1764136;81;21138;-93
2021/01/24 08:44:32;;;;;;;23.83;15.00;;;;;;;3.41;85.25;94454.09;1763707;81;21114;-92
2021/01/24 08:47:07;;;;;;;25.08;15.58;;;;;;;3.58;85.23;94460.89;1763749;81;21146;-93
2021/01/24 08:49:36;;;;;;;19.15;13.35;;;;;;;3.78;85.23;94455.30;1763868;81;21134;-93
2021/01/24 08:52:04;;;;;;;17.02;10.78;;;;;;;4.27;85.50;94457.88;1763689;81;21131;-93
2021/01/24 08:54:40;;;;;;;14.25;7.78;;;;;;;4.54;85.27;94466.28;1763868;81;21134;-93
2021/01/24 08:57:19;;;;;;;14.03;7.60;;;;;;;4.89;85.05;94464.78;1763668;81;21138;-92
2021/01/24 08:59:54;;;;;;;19.70;13.03;;;;;;;5.11;83.14;94464.61;1763902;81;21142;-93
2021/01/24 09:02:39;;;;;;;20.02;12.82;;;;;;;5.19;82.25;94474.39;1763758;81;21601;-93
2021/01/24 09:05:10;;;;;;;18.95;12.37;;;;;;;5.28;82.67;94477.34;1763663;81;21155;-93
2021/01/24 09:07:49;;;;;;;24.15;15.63;;;;;;;5.26;82.01;94487.38;1763647;81;21277;-93
2021/01/24 09:10:24;;;;;;;29.00;16.57;;;;;;;5.09;81.56;94493.80;1763663;81;21225;-92
2021/01/24 09:13:02;;;;;;;24.50;15.70;;;;;;;4.85;81.36;94495.86;1763951;81;21123;-93
2021/01/24 09:15:32;;;;;;;26.33;16.12;;;;;;;4.57;81.11;94497.72;1764021;81;21119;-91
2021/01/24 09:18:02;;;;;;;24.92;16.00;;;;;;;4.27;81.52;94505.08;1763642;81;21318;-92
2021/01/24 09:20:30;;;;;;;26.77;16.25;;;;;;;3.93;81.94;94507.23;1763633;81;21111;-91
2021/01/24 09:22:58;;;;;;;26.90;15.48;;;;;;;3.67;82.90;94515.52;1763810;81;21150;-91
2021/01/24 09:25:26;;;;;;;28.47;17.90;;;;;;;3.49;83.66;94506.59;1763711;80;21158;-92
2021/01/24 09:27:52;;;;;;;20.70;13.43;;;;;;;3.37;84.29;94512.79;1763607;81;21154;-93
2021/01/24 09:30:20;;;;;;;16.62;9.30;;;;;;;3.27;85.25;94515.04;1763719;81;21177;-91
2021/01/24 09:32:47;;;;;;;17.23;11.10;;;;;;;3.25;85.72;94522.94;1763622;81;21158;-92
2021/01/24 09:35:14;;;;;;;18.75;12.00;;;;;;;3.23;86.09;94532.89;1763631;81;21526;-92
2021/01/24 09:37:42;;;;;;;10.90;6.53;;;;;;;3.24;86.37;94512.99;1763622;81;21177;-92
2021/01/24 09:40:11;;;;;;;12.00;5.28;;;;;;;3.28;86.28;94511.36;1763670;81;21143;-93
2021/01/24 09:42:39;;;;;;;7.75;4.35;;;;;;;3.20;86.18;94526.38;1763636;81;21107;-95
2021/01/24 09:45:08;;;;;;;9.78;5.17;;;;;;;3.09;86.16;94516.32;1763944;81;21147;-94
2021/01/24 09:47:35;;;;;;;10.70;4.97;;;;;;;2.97;86.28;94528.53;1763830;81;21178;-93
2021/01/24 09:50:03;;;;;;;9.65;5.72;;;;;;;2.88;86.56;94533.59;1763659;81;21524;-95
2021/01/24 09:52:30;;;;;;;9.33;5.90;;;;;;;2.85;86.77;94522.92;1763959;81;21154;-95
2021/01/24 09:54:57;;;;;;;11.57;6.95;;;;;;;2.78;86.84;94536.33;1763672;81;21106;-95
2021/01/24 09:57:25;;;;;;;11.30;6.67;;;;;;;2.77;87.00;94538.70;1763649;81;21150;-94
2021/01/24 09:59:52;;;;;;;12.75;7.30;;;;;;;2.86;87.20;94550.11;1763611;81;21143;-94
2021/01/24 10:02:19;;;;;;;14.63;8.18;;;;;;;2.93;87.25;94549.23;1763736;81;21122;-93
2021/01/24 10:04:46;;;;;;;12.10;6.37;;;;;;;2.91;87.15;94547.42;1763733;81;21594;-93
2021/01/24 10:07:15;;;;;;;9.03;6.25;;;;;;;2.87;86.93;94546.97;1763796;81;21154;-94
2021/01/24 10:09:42;;;;;;;13.78;8.00;;;;;;;2.78;86.92;94544.18;1763692;81;21474;-94
2021/01/24 10:12:09;;;;;;;18.23;9.78;;;;;;;2.72;86.88;94555.77;1763705;81;21263;-92
2021/01/24 10:14:36;;;;;;;20.25;12.18;;;;;;;2.75;86.99;94553.90;1763608;81;21139;-94
2021/01/24 10:17:03;;;;;;;19.42;12.45;;;;;;;2.83;87.02;94554.61;1763837;81;21103;-93
2021/01/24 10:19:30;;;;;;;12.93;7.62;;;;;;;2.92;87.19;94547.67;1763827;81;21138;-92
2021/01/24 10:21:58;;;;;;;14.23;8.80;;;;;;;2.96;87.07;94550.00;1763687;81;21143;-93
2021/01/24 10:24:25;;;;;;;12.28;7.10;;;;;;;3.06;87.20;94553.53;1763861;81;21144;-94
2021/01/24 10:26:52;;;;;;;7.62;4.45;;;;;;;3.13;86.93;94560.53;1770190;81;21138;-95
2021/01/24 10:29:19;;;;;;;10.95;5.22;;;;;;;3.08;86.82;94563.97;1756290;82;21156;-93
2021/01/24 10:31:46;;;;;;;9.83;6.72;;;;;;;2.97;86.76;94568.57;1772858;81;21133;-93
2021/01/24 10:34:13;;;;;;;13.43;8.13;;;;;;;2.90;86.90;94583.81;1773029;81;21141;-91
2021/01/24 10:36:41;;;;;;;16.27;9.45;;;;;;;2.93;86.93;94576.71;1772787;81;21134;-93
2021/01/24 10:39:08;;;;;;;15.85;9.75;;;;;;;3.02;87.03;94584.73;1741043;82;21169;-93
2021/01/24 10:41:35;;;;;;;18.55;10.35;;;;;;;3.05;86.89;94587.31;1772602;81;21150;-92
2021/01/24 10:44:03;;;;;;;16.32;10.60;;;;;;;2.99;86.96;94580.06;1740708;82;21145;-94
2021/01/24 10:46:30;;;;;;;13.18;8.00;;;;;;;2.91;87.11;94587.99;1740715;82;21114;-93
2021/01/24 10:48:57;;;;;;;16.40;9.43;;;;;;;2.84;87.36;94584.16;1772516;81;21181;-94
2021/01/24 10:51:25;;;;;;;15.38;10.08;;;;;;;2.77;87.67;94587.10;1740728;82;21553;-93
2021/01/24 10:53:52;;;;;;;18.45;10.93;;;;;;;2.76;87.78;94596.01;1772794;81;21138;-93
2021/01/24 10:56:19;;;;;;;14.33;9.33;;;;;;;2.81;88.11;94585.48;1756205;82;21140;-95
2021/01/24 10:58:47;;;;;;;13.80;9.83;;;;;;;2.85;88.10;94601.42;1772858;80;21149;-94
2021/01/24 11:01:14;;;;;;;17.55;11.22;;;;;;;2.86;88.09;94605.06;1772557;81;21114;-93
2021/01/24 11:03:41;;;;;;;17.17;10.70;;;;;;;2.88;87.96;94602.17;1740817;82;21117;-93
2021/01/24 11:06:09;;;;;;;15.03;9.03;;;;;;;2.87;87.81;94604.01;1740734;82;21118;-93
2021/01/24 11:08:36;;;;;;;16.62;10.10;;;;;;;2.96;87.76;94609.42;1740669;82;21138;-93
2021/01/24 11:11:03;;;;;;;14.45;8.75;;;;;;;3.03;87.57;94603.30;1740698;82;21141;-92
2021/01/24 11:13:30;;;;;;;13.03;8.10;;;;;;;3.12;87.50;94612.11;1772764;81;21133;-92
2021/01/24 11:15:57;;;;;;;14.33;8.78;;;;;;;3.17;87.44;94612.04;1740779;82;21121;-92
2021/01/24 11:18:24;;;;;;;18.62;10.35;;;;;;;3.26;87.44;94608.28;1772551;81;21563;-92
2021/01/24 11:20:51;;;;;;;15.98;9.08;;;;;;;3.28;87.22;94610.09;1740754;82;21126;-94
2021/01/24 11:23:18;;;;;;;14.23;8.90;;;;;;;3.27;87.23;94618.47;1772656;81;21099;-92
2021/01/24 11:25:45;;;;;;;14.00;8.68;;;;;;;3.23;87.19;94610.13;1755842;82;21287;-92
2021/01/24 11:28:13;;;;;;;11.48;7.78;;;;;;;3.24;87.19;94613.02;1769629;81;21149;-93
2021/01/24 11:30:40;;;;;;;13.38;7.95;;;;;;;3.23;87.07;94608.82;1763801;81;21515;-92
2021/01/24 11:33:07;;;;;;;13.70;7.72;;;;;;;3.23;87.08;94616.67;1763544;81;21204;-92
2021/01/24 11:35:34;;;;;;;13.18;7.58;;;;;;;3.21;87.11;94613.56;1763633;81;21613;-92
2021/01/24 11:38:02;;;;;;;11.95;7.03;;;;;;;3.20;87.09;94618.02;1763622;81;21167;-92
2021/01/24 11:40:29;;;;;;;11.85;4.80;;;;;;;3.21;87.01;94615.65;1763622;81;21123;-92